createdAt,value
2022-08-21T00:01:36.757Z,47.74
2022-08-21T00:04:03.168Z,47.69
2022-08-21T00:06:29.544Z,47.90
2022-08-21T00:08:55.929Z,47.75
2022-08-21T00:11:22.320Z,47.75
2022-08-21T00:13:48.697Z,47.68
2022-08-21T00:16:15.117Z,47.67
2022-08-21T00:18:41.493Z,47.60
2022-08-21T00:21:07.887Z,47.61
2022-08-21T00:23:34.273Z,47.65
2022-08-21T00:26:00.695Z,47.75
2022-08-21T00:28:27.114Z,47.76
2022-08-21T00:30:53.498Z,47.61
2022-08-21T00:33:19.878Z,47.63
2022-08-21T00:35:46.290Z,47.71
2022-08-21T00:38:12.700Z,47.62
2022-08-21T00:40:39.083Z,47.62
2022-08-21T00:43:05.464Z,47.59
2022-08-21T00:45:31.855Z,47.54
2022-08-21T00:47:58.240Z,47.55
2022-08-21T00:50:24.636Z,47.56
2022-08-21T00:52:51.088Z,47.52
2022-08-21T00:55:17.438Z,47.54
2022-08-21T00:57:43.826Z,47.58
2022-08-21T01:00:10.202Z,47.68
2022-08-21T01:02:36.580Z,47.50
2022-08-21T01:05:02.970Z,47.57
2022-08-21T01:07:29.341Z,47.54
2022-08-21T01:09:55.733Z,47.63
2022-08-21T01:12:22.117Z,47.48
2022-08-21T01:14:48.543Z,47.46
2022-08-21T01:17:14.920Z,47.55
2022-08-21T01:19:41.336Z,47.46
2022-08-21T01:22:08.660Z,47.46
2022-08-21T01:24:34.102Z,47.47
2022-08-21T01:27:00.482Z,47.47
2022-08-21T01:29:26.891Z,47.46
2022-08-21T01:31:53.268Z,47.53
2022-08-21T01:34:19.656Z,47.38
2022-08-21T01:36:46.125Z,47.42
2022-08-21T01:39:12.506Z,47.40
2022-08-21T01:41:38.889Z,47.39
2022-08-21T01:44:05.279Z,47.36
2022-08-21T01:46:31.657Z,47.36
2022-08-21T01:48:58.053Z,47.48
2022-08-21T01:51:24.438Z,47.42
2022-08-21T01:53:50.852Z,47.36
2022-08-21T01:56:17.245Z,47.39
2022-08-21T01:58:43.654Z,47.38
2022-08-21T02:01:10.185Z,47.36
2022-08-21T02:03:36.535Z,47.56
2022-08-21T02:06:02.919Z,47.35
2022-08-21T02:08:29.284Z,47.39
2022-08-21T02:10:55.663Z,47.36
2022-08-21T02:13:22.046Z,47.34
2022-08-21T02:15:48.475Z,47.26
2022-08-21T02:18:14.860Z,47.27
2022-08-21T02:20:41.246Z,47.30
2022-08-21T02:23:07.623Z,47.42
2022-08-21T02:25:34.004Z,47.41
2022-08-21T02:28:00.391Z,47.29
2022-08-21T02:30:26.813Z,47.38
2022-08-21T02:32:53.196Z,47.32
2022-08-21T02:35:19.604Z,47.36
2022-08-21T02:37:46.001Z,47.35
2022-08-21T02:40:12.524Z,47.34
2022-08-21T02:42:38.768Z,47.26
2022-08-21T02:45:05.153Z,47.32
2022-08-21T02:47:31.539Z,47.30
2022-08-21T02:49:57.928Z,47.34
2022-08-21T02:52:24.307Z,47.22
2022-08-21T02:54:50.693Z,47.26
2022-08-21T02:57:17.083Z,47.23
2022-08-21T02:59:43.460Z,47.23
2022-08-21T03:02:09.851Z,47.26
2022-08-21T03:04:36.397Z,47.22
2022-08-21T03:07:02.787Z,47.29
2022-08-21T03:09:29.173Z,47.33
2022-08-21T03:11:55.560Z,47.26
2022-08-21T03:14:21.945Z,47.21
2022-08-21T03:16:48.337Z,47.30
2022-08-21T03:19:14.744Z,47.32
2022-08-21T03:21:41.134Z,47.27
2022-08-21T03:24:07.548Z,47.29
2022-08-21T03:26:33.930Z,47.21
2022-08-21T03:29:00.334Z,47.22
2022-08-21T03:31:26.734Z,47.14
2022-08-21T03:33:53.118Z,47.17
2022-08-21T03:36:19.495Z,47.22
2022-08-21T03:38:45.881Z,47.18
2022-08-21T03:41:12.324Z,47.13
2022-08-21T03:43:38.697Z,47.10
2022-08-21T03:46:05.152Z,47.11
2022-08-21T03:48:31.540Z,47.12
2022-08-21T03:50:57.948Z,47.18
2022-08-21T03:53:24.460Z,47.15
2022-08-21T03:55:50.831Z,47.16
2022-08-21T03:58:17.847Z,47.06
2022-08-21T04:00:43.597Z,47.11
2022-08-21T04:03:09.982Z,47.07
2022-08-21T04:05:36.361Z,47.15
2022-08-21T04:08:02.855Z,47.11
2022-08-21T04:10:29.245Z,47.07
2022-08-21T04:12:55.643Z,47.10
2022-08-21T04:15:22.021Z,47.13
2022-08-21T04:17:48.415Z,47.04
2022-08-21T04:20:14.911Z,47.10
2022-08-21T04:22:41.308Z,47.07
2022-08-21T04:25:07.676Z,47.07
2022-08-21T04:27:34.074Z,47.05
2022-08-21T04:30:00.451Z,47.03
2022-08-21T04:32:26.855Z,47.02
2022-08-21T04:34:53.307Z,46.97
2022-08-21T04:37:19.741Z,46.97
2022-08-21T04:39:49.291Z,47.01
2022-08-21T04:42:12.515Z,47.01
2022-08-21T04:44:38.903Z,47.00
2022-08-21T04:47:05.302Z,46.97
2022-08-21T04:49:31.676Z,47.02
2022-08-21T04:51:58.091Z,47.01
2022-08-21T04:54:24.491Z,46.97
2022-08-21T04:56:50.874Z,46.97
2022-08-21T04:59:17.253Z,46.90
2022-08-21T05:01:43.698Z,46.96
2022-08-21T05:04:10.040Z,46.93
2022-08-21T05:06:36.436Z,46.89
2022-08-21T05:09:02.830Z,46.91
2022-08-21T05:11:29.216Z,46.88
2022-08-21T05:13:58.032Z,46.92
2022-08-21T05:16:30.171Z,46.88
2022-08-21T05:18:50.849Z,46.87
2022-08-21T05:21:17.238Z,46.86
2022-08-21T05:23:43.616Z,46.88
2022-08-21T05:26:16.309Z,46.91
2022-08-21T05:28:36.479Z,46.82
2022-08-21T05:31:02.874Z,46.82
2022-08-21T05:33:29.298Z,46.85
2022-08-21T05:35:55.683Z,46.72
2022-08-21T05:38:22.068Z,46.68
2022-08-21T05:40:48.612Z,46.68
2022-08-21T05:43:14.929Z,46.65
2022-08-21T05:45:43.728Z,46.64
2022-08-21T05:48:07.742Z,46.64
2022-08-21T05:50:34.130Z,46.59
2022-08-21T05:53:04.379Z,46.59
2022-08-21T05:55:26.906Z,46.62
2022-08-21T05:57:53.293Z,46.61
2022-08-21T06:00:19.787Z,46.62
2022-08-21T06:02:46.066Z,46.65
2022-08-21T06:05:12.454Z,46.57
2022-08-21T06:07:38.868Z,46.66
2022-08-21T06:10:05.255Z,46.68
2022-08-21T06:12:31.646Z,46.65
2022-08-21T06:14:58.036Z,46.65
2022-08-21T06:17:26.890Z,46.68
2022-08-21T06:19:53.287Z,46.59
2022-08-21T06:22:19.676Z,46.45
2022-08-21T06:24:46.063Z,46.45
2022-08-21T06:27:12.446Z,46.36
2022-08-21T06:29:44.328Z,46.31
2022-08-21T06:32:05.215Z,46.23
2022-08-21T06:34:31.598Z,46.23
2022-08-21T06:36:57.979Z,46.24
2022-08-21T06:39:25.467Z,46.22
2022-08-21T06:41:50.740Z,46.27
2022-08-21T06:44:17.127Z,46.34
2022-08-21T06:46:43.510Z,46.36
2022-08-21T06:49:10.017Z,46.40
2022-08-21T06:51:36.396Z,46.41
2022-08-21T06:54:02.778Z,46.33
2022-08-21T06:56:29.166Z,46.30
2022-08-21T06:58:55.550Z,46.13
2022-08-21T07:01:22.000Z,46.14
2022-08-21T07:03:48.321Z,46.07
2022-08-21T07:06:14.707Z,45.97
2022-08-21T07:08:41.124Z,45.97
2022-08-21T07:11:07.505Z,45.87
2022-08-21T07:13:34.040Z,45.83
2022-08-21T07:16:04.127Z,45.72
2022-08-21T07:18:26.908Z,45.66
2022-08-21T07:20:53.282Z,45.65
2022-08-21T07:23:21.612Z,45.63
2022-08-21T07:25:46.055Z,45.62
2022-08-21T07:28:12.545Z,45.59
2022-08-21T07:30:39.183Z,45.59
2022-08-21T07:33:05.574Z,45.59
2022-08-21T07:35:31.958Z,45.57
2022-08-21T07:37:58.359Z,45.56
2022-08-21T07:40:24.905Z,45.52
2022-08-21T07:42:51.245Z,45.54
2022-08-21T07:45:17.500Z,45.48
2022-08-21T07:47:43.890Z,45.46
2022-08-21T07:50:10.346Z,45.49
2022-08-21T07:52:36.759Z,45.46
2022-08-21T07:55:06.288Z,45.44
2022-08-21T07:57:29.638Z,45.40
2022-08-21T07:59:56.012Z,45.43
2022-08-21T08:02:22.403Z,45.37
2022-08-21T08:04:50.606Z,45.72
2022-08-21T08:07:15.196Z,45.68
2022-08-21T08:09:41.700Z,45.70
2022-08-21T08:12:08.087Z,45.77
2022-08-21T08:14:34.469Z,45.85
2022-08-21T08:17:02.299Z,45.92
2022-08-21T08:19:27.263Z,45.95
2022-08-21T08:21:53.647Z,46.00
2022-08-21T08:24:20.378Z,45.95
2022-08-21T08:26:46.530Z,45.96
2022-08-21T08:29:12.992Z,45.95
2022-08-21T08:31:39.383Z,45.91
2022-08-21T08:34:05.795Z,45.85
2022-08-21T08:36:32.183Z,45.78
2022-08-21T08:38:58.573Z,45.71
2022-08-21T08:41:30.701Z,45.74
2022-08-21T08:43:52.286Z,45.65
2022-08-21T08:46:18.681Z,45.61
2022-08-21T08:48:52.776Z,45.65
2022-08-21T08:51:11.454Z,45.65
2022-08-21T08:53:37.913Z,45.60
2022-08-21T08:56:04.298Z,45.61
2022-08-21T08:58:30.681Z,45.59
2022-08-21T09:00:57.098Z,45.58
2022-08-21T09:03:23.548Z,45.66
2022-08-21T09:05:49.946Z,45.58
2022-08-21T09:08:18.864Z,45.75
2022-08-21T09:10:42.728Z,45.88
2022-08-21T09:13:09.100Z,46.09
2022-08-21T09:15:35.505Z,46.19
2022-08-21T09:18:01.906Z,46.20
2022-08-21T09:20:28.291Z,46.23
2022-08-21T09:22:54.742Z,46.27
2022-08-21T09:25:21.103Z,46.24
2022-08-21T09:27:47.480Z,46.30
2022-08-21T09:30:13.940Z,46.27
2022-08-21T09:32:40.442Z,46.23
2022-08-21T09:35:06.838Z,46.24
2022-08-21T09:37:33.212Z,46.27
2022-08-21T09:39:59.660Z,46.35
2022-08-21T09:42:26.007Z,46.34
2022-08-21T09:44:52.398Z,46.43
2022-08-21T09:47:18.789Z,46.48
2022-08-21T09:49:45.179Z,46.52
2022-08-21T09:52:11.596Z,46.59
2022-08-21T09:54:37.984Z,46.67
2022-08-21T09:57:04.373Z,46.62
2022-08-21T09:59:34.185Z,46.65
2022-08-21T10:01:57.181Z,46.65
2022-08-21T10:04:23.662Z,46.63
2022-08-21T10:06:50.061Z,46.56
2022-08-21T10:09:20.974Z,46.60
2022-08-21T10:11:42.837Z,46.50
2022-08-21T10:14:09.218Z,46.49
2022-08-21T10:16:35.602Z,46.47
2022-08-21T10:19:02.021Z,46.51
2022-08-21T10:21:28.411Z,46.47
2022-08-21T10:23:54.795Z,46.43
2022-08-21T10:26:21.173Z,46.45
2022-08-21T10:28:47.565Z,46.53
2022-08-21T10:31:13.957Z,46.56
2022-08-21T10:33:40.454Z,46.55
2022-08-21T10:36:06.842Z,46.59
2022-08-21T10:38:50.269Z,46.68
2022-08-21T10:40:59.629Z,46.67
2022-08-21T10:43:26.050Z,46.68
2022-08-21T10:45:52.425Z,46.72
2022-08-21T10:48:18.815Z,46.77
2022-08-21T10:50:45.197Z,46.81
2022-08-21T10:53:11.715Z,46.78
2022-08-21T10:55:38.101Z,46.75
2022-08-21T10:58:04.482Z,46.78
2022-08-21T11:00:30.887Z,46.63
2022-08-21T11:02:57.365Z,46.62
2022-08-21T11:05:23.634Z,46.57
2022-08-21T11:07:51.447Z,46.56
2022-08-21T11:10:18.087Z,46.49
2022-08-21T11:12:42.819Z,46.56
2022-08-21T11:15:09.208Z,46.56
2022-08-21T11:17:35.594Z,46.56
2022-08-21T11:20:01.972Z,46.46
2022-08-21T11:22:28.403Z,46.52
2022-08-21T11:24:54.992Z,46.64
2022-08-21T11:27:21.379Z,46.72
2022-08-21T11:29:47.760Z,46.69
2022-08-21T11:32:14.146Z,46.61
2022-08-21T11:34:40.552Z,46.47
2022-08-21T11:37:06.933Z,46.56
2022-08-21T11:39:33.320Z,46.57
2022-08-21T11:41:59.707Z,46.58
2022-08-21T11:44:26.120Z,46.58
2022-08-21T11:46:52.532Z,46.60
2022-08-21T11:49:18.936Z,46.61
2022-08-21T11:51:45.319Z,46.75
2022-08-21T11:54:11.732Z,46.76
2022-08-21T11:56:38.138Z,46.86
2022-08-21T11:59:04.520Z,46.88
2022-08-21T12:01:30.944Z,46.96
2022-08-21T12:03:57.293Z,46.92
2022-08-21T12:06:24.276Z,46.87
2022-08-21T12:08:50.192Z,46.87
2022-08-21T12:11:16.583Z,46.78
2022-08-21T12:13:42.970Z,46.70
2022-08-21T12:16:09.373Z,46.65
2022-08-21T12:18:35.858Z,46.64
2022-08-21T12:21:02.246Z,46.64
2022-08-21T12:23:28.729Z,46.59
2022-08-21T12:25:55.124Z,46.58
2022-08-21T12:28:21.509Z,46.63
2022-08-21T12:30:47.899Z,46.46
2022-08-21T12:33:14.284Z,46.41
2022-08-21T12:35:40.671Z,46.42
2022-08-21T12:38:07.066Z,46.39
2022-08-21T12:40:33.476Z,46.43
2022-08-21T12:43:00.119Z,46.39
2022-08-21T12:45:26.244Z,46.37
2022-08-21T12:47:52.625Z,46.38
2022-08-21T12:50:19.095Z,46.39
2022-08-21T12:52:45.474Z,46.49
2022-08-21T12:55:11.867Z,46.57
2022-08-21T12:57:38.246Z,46.67
2022-08-21T13:00:04.634Z,46.83
2022-08-21T13:02:31.020Z,46.88
2022-08-21T13:04:57.403Z,46.91
2022-08-21T13:07:23.784Z,46.99
2022-08-21T13:09:50.175Z,47.05
2022-08-21T13:12:16.567Z,47.06
2022-08-21T13:14:46.298Z,47.15
2022-08-21T13:17:09.349Z,47.23
2022-08-21T13:19:35.774Z,47.26
2022-08-21T13:22:02.209Z,47.27
2022-08-21T13:24:44.099Z,47.28
2022-08-21T13:26:55.021Z,47.36
2022-08-21T13:29:22.834Z,47.42
2022-08-21T13:31:47.837Z,47.43
2022-08-21T13:34:14.223Z,47.46
2022-08-21T13:36:40.604Z,47.47
2022-08-21T13:39:07.019Z,47.51
2022-08-21T13:41:33.476Z,47.59
2022-08-21T13:43:59.867Z,47.77
2022-08-21T13:46:26.254Z,47.94
2022-08-21T13:48:52.639Z,48.02
2022-08-21T13:51:19.076Z,48.14
2022-08-21T13:53:45.468Z,48.21
2022-08-21T13:56:11.844Z,48.30
2022-08-21T13:58:38.273Z,48.51
2022-08-21T14:01:05.090Z,48.60
2022-08-21T14:03:31.164Z,48.48
2022-08-21T14:06:00.407Z,48.29
2022-08-21T14:08:30.500Z,48.00
2022-08-21T14:10:53.723Z,47.99
2022-08-21T14:13:16.733Z,47.91
2022-08-21T14:15:43.242Z,47.75
2022-08-21T14:18:09.608Z,47.74
2022-08-21T14:20:36.096Z,47.61
2022-08-21T14:23:02.495Z,47.59
2022-08-21T14:25:28.885Z,47.42
2022-08-21T14:27:55.269Z,47.27
2022-08-21T14:30:21.654Z,46.88
2022-08-21T14:32:48.033Z,46.74
2022-08-21T14:35:14.422Z,46.79
2022-08-21T14:37:40.816Z,46.93
2022-08-21T14:40:07.226Z,47.04
2022-08-21T14:42:33.586Z,47.25
2022-08-21T14:44:59.971Z,47.10
2022-08-21T14:47:26.354Z,47.13
2022-08-21T14:49:52.787Z,47.73
2022-08-21T14:52:19.169Z,47.85
2022-08-21T14:54:45.561Z,48.01
2022-08-21T14:57:11.965Z,48.39
2022-08-21T14:59:38.352Z,48.32
2022-08-21T15:02:04.852Z,48.62
2022-08-21T15:04:31.246Z,48.72
2022-08-21T15:06:57.635Z,49.19
2022-08-21T15:09:24.019Z,49.69
2022-08-21T15:11:50.397Z,49.76
2022-08-21T15:14:16.847Z,49.72
2022-08-21T15:16:43.196Z,49.74
2022-08-21T15:19:09.587Z,49.66
2022-08-21T15:21:35.964Z,49.57
2022-08-21T15:24:02.355Z,49.64
2022-08-21T15:26:28.747Z,49.74
2022-08-21T15:28:55.133Z,49.70
2022-08-21T15:31:21.517Z,49.79
2022-08-21T15:33:47.905Z,49.83
2022-08-21T15:36:14.283Z,49.90
2022-08-21T15:38:40.670Z,49.91
2022-08-21T15:41:07.052Z,50.00
2022-08-21T15:43:33.450Z,49.94
2022-08-21T15:45:59.847Z,50.03
2022-08-21T15:48:26.242Z,50.00
2022-08-21T15:50:52.619Z,50.10
2022-08-21T15:53:19.141Z,50.16
2022-08-21T15:55:45.596Z,50.02
2022-08-21T15:58:12.031Z,49.81
2022-08-21T16:00:38.411Z,49.87
2022-08-21T16:03:04.829Z,49.90
2022-08-21T16:05:31.232Z,49.90
2022-08-21T16:07:57.651Z,50.02
2022-08-21T16:10:24.035Z,50.13
2022-08-21T16:12:50.417Z,50.21
2022-08-21T16:15:20.386Z,50.19
2022-08-21T16:17:43.260Z,50.15
2022-08-21T16:20:09.667Z,50.15
2022-08-21T16:22:44.571Z,50.15
2022-08-21T16:25:02.435Z,50.12
2022-08-21T16:27:28.891Z,50.19
2022-08-21T16:29:55.273Z,50.26
2022-08-21T16:32:22.828Z,50.42
2022-08-21T16:34:48.145Z,50.50
2022-08-21T16:37:14.530Z,50.41
2022-08-21T16:39:40.951Z,50.46
2022-08-21T16:42:07.298Z,50.45
2022-08-21T16:44:33.718Z,50.35
2022-08-21T16:47:00.095Z,50.27
2022-08-21T16:49:26.589Z,50.26
2022-08-21T16:51:52.974Z,50.15
2022-08-21T16:54:19.354Z,50.01
2022-08-21T16:56:47.713Z,49.90
2022-08-21T16:59:12.137Z,49.89
2022-08-21T17:01:38.569Z,49.72
2022-08-21T17:04:05.075Z,49.66
2022-08-21T17:06:31.290Z,49.60
2022-08-21T17:08:57.686Z,49.50
2022-08-21T17:11:37.856Z,49.40
2022-08-21T17:13:50.609Z,49.48
2022-08-21T17:16:16.987Z,49.31
2022-08-21T17:18:43.396Z,49.24
2022-08-21T17:21:09.921Z,49.11
2022-08-21T17:23:36.352Z,49.14
2022-08-21T17:26:02.887Z,49.13
2022-08-21T17:28:29.289Z,48.97
2022-08-21T17:30:55.687Z,48.87
2022-08-21T17:33:22.186Z,48.83
2022-08-21T17:35:48.621Z,48.79
2022-08-21T17:38:15.134Z,48.74
2022-08-21T17:40:41.487Z,48.69
2022-08-21T17:43:07.928Z,48.59
2022-08-21T17:45:34.333Z,48.52
2022-08-21T17:48:00.730Z,48.44
2022-08-21T17:50:27.226Z,48.38
2022-08-21T17:52:53.618Z,48.29
2022-08-21T17:55:20.087Z,48.29
2022-08-21T17:57:46.521Z,48.37
2022-08-21T18:00:12.934Z,48.21
2022-08-21T18:02:39.329Z,48.20
2022-08-21T18:05:05.743Z,48.16
2022-08-21T18:07:33.056Z,48.16
2022-08-21T18:09:58.688Z,48.20
2022-08-21T18:12:25.120Z,48.14
2022-08-21T18:14:51.555Z,48.14
2022-08-21T18:17:18.098Z,48.12
2022-08-21T18:19:48.843Z,48.16
2022-08-21T18:22:11.078Z,48.20
2022-08-21T18:24:37.350Z,48.20
2022-08-21T18:27:03.823Z,48.20
2022-08-21T18:29:30.257Z,48.37
2022-08-21T18:31:56.662Z,48.26
2022-08-21T18:34:23.067Z,48.36
2022-08-21T18:36:49.565Z,48.23
2022-08-21T18:39:35.348Z,48.08
2022-08-21T18:41:42.394Z,48.11
2022-08-21T18:44:08.807Z,48.12
2022-08-21T18:46:35.214Z,48.14
2022-08-21T18:49:01.725Z,48.08
2022-08-21T18:51:28.133Z,48.16
2022-08-21T18:53:56.121Z,48.21
2022-08-21T18:56:23.458Z,48.20
2022-08-21T18:58:49.916Z,48.12
2022-08-21T19:01:16.507Z,48.08
2022-08-21T19:03:42.885Z,48.10
2022-08-21T19:06:09.780Z,48.02
2022-08-21T19:08:35.712Z,48.13
2022-08-21T19:11:02.189Z,48.11
2022-08-21T19:13:28.619Z,48.16
2022-08-21T19:15:55.051Z,48.20
2022-08-21T19:18:24.157Z,48.30
2022-08-21T19:20:47.888Z,48.34
2022-08-21T19:23:14.457Z,48.07
2022-08-21T19:25:41.814Z,48.16
2022-08-21T19:28:11.001Z,48.23
2022-08-21T19:30:33.724Z,48.25
2022-08-21T19:33:00.318Z,48.29
2022-08-21T19:35:26.621Z,48.26
2022-08-21T19:37:53.158Z,48.26
2022-08-21T19:40:19.617Z,48.22
2022-08-21T19:42:45.996Z,48.04
2022-08-21T19:45:12.398Z,48.03
2022-08-21T19:47:38.893Z,47.91
2022-08-21T19:50:05.301Z,47.89
2022-08-21T19:52:31.742Z,47.85
2022-08-21T19:54:58.191Z,47.87
2022-08-21T19:57:24.595Z,47.87
2022-08-21T19:59:51.025Z,47.86
2022-08-21T20:02:17.462Z,47.84
2022-08-21T20:04:54.010Z,47.84
2022-08-21T20:07:10.496Z,47.84
2022-08-21T20:09:36.898Z,47.77
2022-08-21T20:12:09.217Z,47.78
2022-08-21T20:14:30.492Z,47.78
2022-08-21T20:16:56.195Z,47.76
2022-08-21T20:19:22.632Z,47.84
2022-08-21T20:21:49.063Z,47.94
2022-08-21T20:24:15.477Z,47.91
2022-08-21T20:26:41.928Z,48.00
2022-08-21T20:29:08.364Z,47.87
2022-08-21T20:31:34.795Z,47.87
2022-08-21T20:34:01.334Z,47.85
2022-08-21T20:36:27.766Z,47.93
2022-08-21T20:38:54.168Z,48.02
2022-08-21T20:41:30.709Z,47.99
2022-08-21T20:43:46.975Z,47.95
2022-08-21T20:46:13.501Z,48.07
2022-08-21T20:48:49.438Z,48.13
2022-08-21T20:51:08.824Z,48.10
2022-08-21T20:53:43.565Z,48.09
2022-08-21T20:56:01.691Z,48.00
2022-08-21T20:58:29.670Z,48.03
2022-08-21T21:00:54.558Z,48.00
2022-08-21T21:03:26.360Z,47.93
2022-08-21T21:05:47.506Z,47.89
2022-08-21T21:08:13.958Z,47.90
2022-08-21T21:10:40.393Z,47.86
2022-08-21T21:13:06.833Z,47.85
2022-08-21T21:15:33.362Z,47.87
2022-08-21T21:17:59.765Z,48.00
2022-08-21T21:20:26.229Z,47.91
2022-08-21T21:22:52.690Z,47.95
2022-08-21T21:25:19.073Z,48.04
2022-08-21T21:30:14.329Z,48.14
2022-08-21T21:32:38.374Z,48.07
2022-08-21T21:35:04.830Z,48.07
2022-08-21T21:37:31.261Z,48.09
2022-08-21T21:39:57.851Z,48.06
2022-08-21T21:42:30.001Z,48.07
2022-08-21T21:44:50.665Z,48.14
2022-08-21T21:47:17.098Z,48.08
2022-08-21T21:49:43.533Z,48.01
2022-08-21T21:54:36.368Z,48.01
2022-08-21T21:57:02.833Z,48.08
2022-08-21T21:59:29.794Z,48.08
2022-08-21T22:01:55.667Z,48.03
2022-08-21T22:04:22.063Z,48.16
2022-08-21T22:06:51.331Z,48.01
2022-08-21T22:09:14.976Z,48.10
2022-08-21T22:11:41.439Z,48.00
2022-08-21T22:14:08.524Z,48.00
2022-08-21T22:16:34.298Z,48.05
2022-08-21T22:19:00.733Z,48.09
2022-08-21T22:21:27.190Z,48.00
2022-08-21T22:23:53.703Z,48.04
2022-08-21T22:26:20.105Z,48.10
2022-08-21T22:28:46.570Z,48.13
2022-08-21T22:31:13.004Z,48.13
2022-08-21T22:33:39.411Z,48.03
2022-08-21T22:36:05.817Z,48.06
2022-08-21T22:38:32.303Z,48.07
2022-08-21T22:40:58.739Z,48.06
2022-08-21T22:43:25.143Z,48.20
2022-08-21T22:45:51.549Z,47.96
2022-08-21T22:48:22.533Z,47.97
2022-08-21T22:50:44.469Z,47.94
2022-08-21T22:53:10.904Z,47.97
2022-08-21T22:55:37.305Z,48.05
2022-08-21T22:58:03.712Z,47.93
2022-08-21T23:00:30.203Z,47.96
2022-08-21T23:02:56.729Z,47.97
2022-08-21T23:05:23.044Z,48.01
2022-08-21T23:07:49.745Z,48.01
2022-08-21T23:10:15.869Z,47.89
2022-08-21T23:15:08.804Z,47.91
2022-08-21T23:17:35.215Z,48.00
2022-08-21T23:20:01.641Z,48.04
2022-08-21T23:22:28.415Z,47.91
2022-08-21T23:24:54.507Z,47.92
2022-08-21T23:27:20.971Z,47.99
2022-08-21T23:29:47.371Z,48.00
2022-08-21T23:32:13.847Z,48.03
2022-08-21T23:34:40.237Z,48.10
2022-08-21T23:37:06.704Z,48.07
2022-08-21T23:39:33.241Z,47.97
2022-08-21T23:41:59.675Z,47.86
2022-08-21T23:44:26.106Z,47.95
2022-08-21T23:46:52.643Z,48.07
2022-08-21T23:49:19.046Z,48.00
2022-08-21T23:51:45.479Z,48.05
2022-08-21T23:54:11.913Z,47.87
2022-08-21T23:56:38.311Z,48.03
2022-08-21T23:59:04.742Z,47.88
